Time;durP1;ratioP1;P1;durP2;ratioP2;P2;SDS_P1;SDS_P2;PMS_P1;PMS_P2;Temp;Humidity;BMP_temperature;BMP_pressure;BME280_temperature;BME280_humidity;BME280_pressure;Samples;Min_cycle;Max_cycle;Signal;HPM_P1;HPM_P2
2023/03/04 00:01:32;;;;;;;2.33;1.97;;;6.10;98.00;;;;;;5027916;28;20198;-75
2023/03/04 00:03:58;;;;;;;3.33;1.70;;;6.10;98.00;;;;;;5033681;28;20185;-75
2023/03/04 00:06:24;;;;;;;2.37;1.80;;;6.10;98.10;;;;;;5029039;28;20189;-75
2023/03/04 00:08:49;;;;;;;2.13;1.83;;;6.10;98.00;;;;;;5033284;28;20204;-75
2023/03/04 00:11:15;;;;;;;2.07;1.57;;;6.10;97.90;;;;;;5035077;28;20222;-76
2023/03/04 00:13:41;;;;;;;2.23;2.03;;;6.10;98.00;;;;;;5027929;28;20303;-75
2023/03/04 00:16:07;;;;;;;2.90;1.77;;;6.10;98.20;;;;;;5030741;28;20183;-76
2023/03/04 00:18:32;;;;;;;1.80;1.70;;;6.10;98.10;;;;;;5030669;28;20683;-76
2023/03/04 00:20:58;;;;;;;1.63;1.53;;;6.20;97.90;;;;;;5031322;28;20184;-76
2023/03/04 00:23:24;;;;;;;1.83;1.70;;;6.10;97.90;;;;;;5030218;28;20534;-76
2023/03/04 00:25:49;;;;;;;3.33;2.20;;;6.10;98.00;;;;;;5028986;28;20192;-75
2023/03/04 00:28:15;;;;;;;2.67;1.67;;;6.20;97.90;;;;;;5036059;28;20262;-76
2023/03/04 00:30:40;;;;;;;2.07;1.87;;;6.10;98.10;;;;;;5034196;28;20227;-76
2023/03/04 00:33:06;;;;;;;3.53;2.07;;;6.10;98.10;;;;;;5032684;28;20190;-74
2023/03/04 00:35:32;;;;;;;2.47;1.53;;;6.10;98.20;;;;;;5030825;28;20207;-75
2023/03/04 00:37:57;;;;;;;2.03;1.77;;;6.10;98.10;;;;;;5038753;28;20183;-76
2023/03/04 00:40:23;;;;;;;1.77;1.57;;;6.10;98.10;;;;;;5032899;28;20578;-76
2023/03/04 00:42:49;;;;;;;2.10;1.80;;;6.10;97.90;;;;;;5031934;28;20214;-76
2023/03/04 00:45:14;;;;;;;2.27;1.90;;;6.20;97.80;;;;;;5033905;28;20186;-76
2023/03/04 00:47:40;;;;;;;2.10;2.00;;;6.20;97.90;;;;;;5030118;28;20728;-76
2023/03/04 00:50:06;;;;;;;2.67;2.47;;;6.10;98.00;;;;;;5031589;28;21174;-75
2023/03/04 00:52:32;;;;;;;3.27;2.07;;;6.20;97.90;;;;;;5034224;28;20234;-75
2023/03/04 00:54:57;;;;;;;1.83;1.73;;;6.20;97.80;;;;;;5033270;28;20184;-75
2023/03/04 00:57:23;;;;;;;2.43;2.20;;;6.20;97.70;;;;;;5033808;28;20211;-75
2023/03/04 00:59:49;;;;;;;2.83;2.10;;;6.20;97.80;;;;;;5031716;28;20222;-76
2023/03/04 01:02:14;;;;;;;2.00;1.90;;;6.20;97.30;;;;;;5028804;28;20187;-75
2023/03/04 01:04:40;;;;;;;2.03;1.83;;;6.20;96.90;;;;;;5032311;28;20577;-75
2023/03/04 01:07:06;;;;;;;2.27;1.87;;;6.20;96.80;;;;;;5032494;28;20286;-76
2023/03/04 01:09:32;;;;;;;6.30;2.17;;;6.20;96.70;;;;;;5029457;28;20269;-76
2023/03/04 01:11:58;;;;;;;5.57;2.43;;;6.20;97.00;;;;;;5028581;28;20752;-75
2023/03/04 01:14:23;;;;;;;1.97;1.73;;;6.10;97.00;;;;;;5024209;28;20207;-76
2023/03/04 01:16:49;;;;;;;2.20;1.93;;;6.10;97.00;;;;;;5029452;28;20191;-76
2023/03/04 01:19:15;;;;;;;2.67;2.30;;;6.10;97.10;;;;;;5027442;28;20262;-76
2023/03/04 01:21:41;;;;;;;2.40;1.77;;;6.10;96.90;;;;;;5028979;28;20272;-76
2023/03/04 01:24:07;;;;;;;3.77;2.30;;;6.10;96.80;;;;;;5029798;28;20184;-76
2023/03/04 01:26:32;;;;;;;2.67;2.00;;;6.20;96.50;;;;;;5029906;28;20257;-75
2023/03/04 01:28:58;;;;;;;1.60;1.50;;;6.20;96.20;;;;;;5030831;28;20673;-75
2023/03/04 01:31:24;;;;;;;2.20;2.00;;;6.30;96.00;;;;;;5028447;28;20702;-74
2023/03/04 01:33:49;;;;;;;3.70;2.17;;;6.30;96.00;;;;;;5033681;28;20179;-76
2023/03/04 01:36:15;;;;;;;3.37;2.57;;;6.30;95.60;;;;;;5032812;28;20183;-76
2023/03/04 01:38:40;;;;;;;2.33;1.97;;;6.30;95.60;;;;;;5029163;28;21228;-76
2023/03/04 01:41:06;;;;;;;2.70;1.77;;;6.10;95.90;;;;;;5031854;28;20627;-76
2023/03/04 01:43:35;;;;;;;1.97;1.87;;;6.10;96.20;;;;;;5025937;28;21060;-76
2023/03/04 01:46:01;;;;;;;1.70;1.60;;;6.10;96.30;;;;;;5028074;28;20186;-76
2023/03/04 01:48:32;;;;;;;5.93;2.10;;;6.00;96.40;;;;;;5030801;28;20180;-75
2023/03/04 01:51:01;;;;;;;2.83;2.10;;;5.90;96.40;;;;;;5024158;28;20708;-76
2023/03/04 01:53:28;;;;;;;1.80;1.70;;;5.90;96.50;;;;;;5027570;28;20184;-75
2023/03/04 01:55:56;;;;;;;1.77;1.63;;;5.90;96.60;;;;;;5028233;28;20269;-75
2023/03/04 01:58:27;;;;;;;2.60;2.23;;;5.80;96.60;;;;;;5028991;28;20207;-76
2023/03/04 02:00:52;;;;;;;2.73;1.97;;;5.80;96.50;;;;;;5031194;28;20195;-74
2023/03/04 02:03:19;;;;;;;2.67;1.80;;;5.70;96.60;;;;;;5030654;28;20180;-75
2023/03/04 02:05:48;;;;;;;3.57;1.87;;;5.70;96.80;;;;;;5033815;28;20262;-75
2023/03/04 02:08:17;;;;;;;1.73;1.50;;;5.70;96.80;;;;;;5030203;28;20191;-75
2023/03/04 02:10:43;;;;;;;5.07;2.00;;;5.60;97.30;;;;;;5028001;28;20313;-76
2023/03/04 02:13:10;;;;;;;2.37;2.17;;;5.50;97.50;;;;;;5028167;28;20176;-75
2023/03/04 02:15:35;;;;;;;3.50;2.10;;;5.50;97.60;;;;;;5028725;28;20220;-75
2023/03/04 02:18:02;;;;;;;2.10;1.90;;;5.50;98.00;;;;;;5023386;28;20229;-74
2023/03/04 02:20:32;;;;;;;3.40;2.20;;;5.50;97.90;;;;;;5027489;28;20630;-74
2023/03/04 02:23:22;;;;;;;3.90;2.40;;;5.50;97.60;;;;;;5027643;28;20181;-74
2023/03/04 02:26:14;;;;;;;2.17;1.97;;;5.50;97.70;;;;;;5027021;28;20191;-74
2023/03/04 02:28:40;;;;;;;3.00;1.63;;;5.50;98.00;;;;;;5028632;28;20616;-75
2023/03/04 02:31:06;;;;;;;2.30;2.10;;;5.50;97.90;;;;;;5028591;28;20227;-75
2023/03/04 02:33:32;;;;;;;3.63;1.90;;;5.50;97.70;;;;;;5029935;28;20632;-76
2023/03/04 02:35:58;;;;;;;2.13;1.80;;;5.50;97.60;;;;;;5025770;28;20188;-75
2023/03/04 02:38:24;;;;;;;3.20;1.63;;;5.50;97.70;;;;;;5031601;28;20263;-75
2023/03/04 02:40:53;;;;;;;1.63;1.43;;;5.50;97.60;;;;;;5030851;28;20292;-75
2023/03/04 02:43:19;;;;;;;3.90;2.30;;;5.50;97.70;;;;;;5030522;28;20185;-75
2023/03/04 02:45:48;;;;;;;2.10;1.97;;;5.40;97.80;;;;;;5037699;28;20255;-75
2023/03/04 02:48:20;;;;;;;2.50;1.80;;;5.40;97.80;;;;;;5032501;28;20187;-75
2023/03/04 02:50:54;;;;;;;11.80;2.30;;;5.30;97.80;;;;;;5033899;28;20220;-75
2023/03/04 02:53:21;;;;;;;1.60;1.50;;;5.20;97.90;;;;;;5029038;28;20171;-75
2023/03/04 02:55:47;;;;;;;1.77;1.63;;;5.10;98.00;;;;;;5030410;28;20179;-76
2023/03/04 02:58:13;;;;;;;2.27;2.10;;;5.10;97.90;;;;;;5033811;28;20669;-75
2023/03/04 03:00:39;;;;;;;3.00;1.97;;;5.00;97.90;;;;;;5030837;28;20600;-75
2023/03/04 03:03:05;;;;;;;3.13;2.27;;;5.00;98.10;;;;;;5033504;28;20184;-75
2023/03/04 03:05:34;;;;;;;2.73;1.73;;;4.90;98.20;;;;;;5031440;28;20187;-74
2023/03/04 03:08:00;;;;;;;3.00;1.80;;;4.90;98.30;;;;;;5030375;28;20700;-76
2023/03/04 03:10:26;;;;;;;3.10;1.63;;;4.80;98.40;;;;;;5027293;28;20249;-75
2023/03/04 03:12:52;;;;;;;3.70;2.37;;;4.80;98.50;;;;;;5030464;28;20223;-75
2023/03/04 03:15:18;;;;;;;3.03;1.90;;;4.80;98.50;;;;;;5031710;28;20932;-75
2023/03/04 03:17:44;;;;;;;2.53;1.30;;;4.80;98.50;;;;;;5031125;28;20184;-75
2023/03/04 03:20:12;;;;;;;3.60;2.20;;;4.80;98.50;;;;;;5028992;28;20194;-75
2023/03/04 03:22:38;;;;;;;2.30;2.03;;;4.80;98.50;;;;;;5025825;28;20185;-75
2023/03/04 03:25:05;;;;;;;2.77;1.77;;;4.70;98.50;;;;;;5029612;28;20188;-75
2023/03/04 03:27:31;;;;;;;2.50;2.30;;;4.70;98.50;;;;;;5029918;28;20191;-75
2023/03/04 03:29:56;;;;;;;3.30;2.50;;;4.70;98.50;;;;;;5031717;28;20208;-75
2023/03/04 03:32:22;;;;;;;2.33;2.03;;;4.70;98.50;;;;;;5025793;28;20193;-75
2023/03/04 03:34:48;;;;;;;1.83;1.73;;;4.70;98.50;;;;;;5034827;28;20722;-75
2023/03/04 03:37:14;;;;;;;2.13;1.80;;;4.60;98.50;;;;;;5029486;28;20210;-75
2023/03/04 03:39:40;;;;;;;3.50;1.60;;;4.60;98.50;;;;;;5026799;28;20207;-75
2023/03/04 03:42:05;;;;;;;1.87;1.60;;;4.60;98.50;;;;;;5028750;28;20180;-75
2023/03/04 03:44:31;;;;;;;1.83;1.77;;;4.60;98.50;;;;;;5029454;28;20191;-75
2023/03/04 03:46:57;;;;;;;3.53;2.07;;;4.60;98.50;;;;;;5028176;28;20180;-75
2023/03/04 03:49:22;;;;;;;2.57;1.70;;;4.60;98.50;;;;;;5030785;28;20191;-75
2023/03/04 03:51:48;;;;;;;3.43;2.23;;;4.60;98.50;;;;;;5033565;28;20180;-75
2023/03/04 03:54:14;;;;;;;2.93;1.87;;;4.50;98.50;;;;;;5030867;28;20262;-75
2023/03/04 03:56:39;;;;;;;3.30;2.10;;;4.50;98.50;;;;;;5033191;28;20202;-74
2023/03/04 03:59:05;;;;;;;1.67;1.57;;;4.50;98.50;;;;;;5030446;28;20190;-74
2023/03/04 04:01:32;;;;;;;6.20;1.97;;;4.50;98.50;;;;;;5029312;28;20199;-73
2023/03/04 04:03:58;;;;;;;2.33;1.73;;;4.50;98.50;;;;;;5030090;28;20263;-74
2023/03/04 04:06:25;;;;;;;1.03;1.03;;;4.50;98.50;;;;;;5021849;28;20188;-74
2023/03/04 04:08:51;;;;;;;2.43;1.80;;;4.40;98.50;;;;;;5030606;28;20195;-74
2023/03/04 04:11:17;;;;;;;2.17;1.57;;;4.40;98.50;;;;;;5034501;28;20217;-74
2023/03/04 04:13:42;;;;;;;4.20;1.73;;;4.40;98.50;;;;;;5032550;28;20188;-74
2023/03/04 04:16:10;;;;;;;4.47;2.17;;;4.40;98.50;;;;;;5025329;28;20807;-75
2023/03/04 04:18:36;;;;;;;2.03;1.93;;;4.30;98.50;;;;;;5027812;28;20665;-74
2023/03/04 04:21:03;;;;;;;2.90;1.73;;;4.40;98.50;;;;;;5025505;28;20210;-74
2023/03/04 04:23:29;;;;;;;1.47;1.37;;;4.30;98.50;;;;;;5029491;28;20184;-74
2023/03/04 04:25:55;;;;;;;2.00;1.53;;;4.30;98.50;;;;;;5022999;28;20610;-75
2023/03/04 04:28:21;;;;;;;3.43;1.60;;;4.30;98.50;;;;;;5013801;28;20192;-75
2023/03/04 04:30:47;;;;;;;4.60;2.07;;;4.30;98.50;;;;;;5026066;28;20219;-74
2023/03/04 04:33:12;;;;;;;1.80;1.67;;;4.20;98.50;;;;;;5026112;28;20242;-76
2023/03/04 04:35:38;;;;;;;1.83;1.37;;;4.20;98.50;;;;;;5026049;28;20238;-76
2023/03/04 04:38:05;;;;;;;1.97;1.47;;;4.20;98.50;;;;;;5027971;28;20250;-75
2023/03/04 04:40:31;;;;;;;4.67;1.83;;;4.20;98.50;;;;;;5028189;28;20188;-76
2023/03/04 04:42:56;;;;;;;3.27;1.93;;;4.20;98.50;;;;;;5029865;28;20191;-75
2023/03/04 04:45:26;;;;;;;2.20;1.80;;;4.20;98.50;;;;;;5028932;28;21935;-75
2023/03/04 04:47:54;;;;;;;3.20;2.13;;;4.20;98.50;;;;;;5027722;28;20704;-74
2023/03/04 04:50:20;;;;;;;1.87;1.70;;;4.20;98.50;;;;;;5032415;28;20230;-75
2023/03/04 04:52:45;;;;;;;4.87;2.20;;;4.20;98.50;;;;;;5030126;28;20220;-76
2023/03/04 04:55:11;;;;;;;3.50;2.50;;;4.20;98.50;;;;;;5029335;28;20179;-76
2023/03/04 04:57:37;;;;;;;2.10;2.00;;;4.20;98.50;;;;;;5035701;28;20176;-75
2023/03/04 05:00:04;;;;;;;2.60;2.20;;;4.20;98.50;;;;;;5026828;28;20180;-75
2023/03/04 05:02:30;;;;;;;3.97;1.70;;;4.10;98.50;;;;;;5025908;28;20180;-75
2023/03/04 05:04:56;;;;;;;2.27;1.67;;;4.10;98.50;;;;;;5023666;28;20194;-75
2023/03/04 05:07:21;;;;;;;2.43;1.53;;;4.10;98.50;;;;;;5033089;28;20215;-75
2023/03/04 05:09:47;;;;;;;2.13;1.53;;;4.10;98.50;;;;;;5024412;28;20231;-75
2023/03/04 05:12:13;;;;;;;4.57;1.50;;;4.10;98.50;;;;;;5022507;28;20191;-74
2023/03/04 05:14:38;;;;;;;2.60;1.67;;;4.00;98.50;;;;;;5026801;28;20255;-75
2023/03/04 05:17:04;;;;;;;3.07;1.90;;;4.00;98.50;;;;;;5033504;28;20263;-75
2023/03/04 05:19:29;;;;;;;2.10;1.83;;;4.00;98.50;;;;;;5028831;28;20188;-75
2023/03/04 05:21:55;;;;;;;5.87;2.17;;;4.10;98.50;;;;;;5032390;28;20188;-75
2023/03/04 05:24:21;;;;;;;2.03;1.40;;;4.20;98.50;;;;;;5030555;28;20292;-75
2023/03/04 05:26:47;;;;;;;2.97;1.37;;;4.20;98.50;;;;;;5036490;28;20229;-73
2023/03/04 05:29:12;;;;;;;1.50;1.40;;;4.30;98.50;;;;;;5028962;28;20190;-74
2023/03/04 05:31:38;;;;;;;2.57;1.63;;;4.30;98.50;;;;;;5027906;28;20227;-74
2023/03/04 05:34:04;;;;;;;1.63;1.37;;;4.40;98.50;;;;;;5028224;28;20183;-74
2023/03/04 05:36:29;;;;;;;2.70;1.33;;;4.40;98.50;;;;;;5031779;28;20175;-73
2023/03/04 05:38:55;;;;;;;2.10;1.23;;;4.40;98.50;;;;;;5025794;28;20176;-74
2023/03/04 05:41:21;;;;;;;4.23;1.90;;;4.50;98.50;;;;;;5034139;28;20556;-74
2023/03/04 05:43:48;;;;;;;3.00;2.07;;;4.50;98.50;;;;;;5027348;28;20258;-73
2023/03/04 05:46:15;;;;;;;3.47;2.07;;;4.60;98.50;;;;;;5031407;28;20191;-74
2023/03/04 05:48:43;;;;;;;1.37;1.37;;;4.70;98.50;;;;;;5032901;28;20636;-74
2023/03/04 05:51:09;;;;;;;2.23;1.03;;;4.80;98.50;;;;;;5032395;28;20251;-75
2023/03/04 05:53:36;;;;;;;3.57;1.83;;;4.90;98.50;;;;;;5030672;28;20196;-74
2023/03/04 05:56:14;;;;;;;3.80;2.10;;;5.00;98.50;;;;;;5026494;28;20190;-74
2023/03/04 05:58:40;;;;;;;8.90;1.97;;;5.00;98.50;;;;;;5028278;28;20184;-75
2023/03/04 06:01:06;;;;;;;2.37;1.60;;;5.10;98.50;;;;;;5025117;28;20219;-74
2023/03/04 06:03:32;;;;;;;2.80;1.57;;;5.10;98.50;;;;;;5028164;28;20656;-75
2023/03/04 06:05:58;;;;;;;2.70;2.03;;;5.20;98.50;;;;;;5030409;28;20184;-74
2023/03/04 06:08:24;;;;;;;2.27;2.10;;;5.20;98.50;;;;;;5026975;28;20190;-76
2023/03/04 06:10:53;;;;;;;3.10;2.47;;;5.30;98.50;;;;;;5031346;28;20224;-74
2023/03/04 06:13:18;;;;;;;3.73;2.20;;;5.30;98.50;;;;;;5027543;28;20189;-74
2023/03/04 06:15:44;;;;;;;2.80;2.13;;;5.40;98.50;;;;;;5026050;28;20177;-75
2023/03/04 06:18:10;;;;;;;3.40;1.90;;;5.40;98.50;;;;;;5027956;28;20185;-73
2023/03/04 06:20:36;;;;;;;3.33;2.27;;;5.40;98.50;;;;;;5032156;28;20249;-74
2023/03/04 06:23:02;;;;;;;5.60;2.27;;;5.50;98.50;;;;;;5033647;28;20263;-74
2023/03/04 06:25:28;;;;;;;2.67;1.37;;;5.60;98.50;;;;;;5031258;28;20187;-74
2023/03/04 06:27:54;;;;;;;3.07;1.97;;;5.70;98.50;;;;;;5036549;28;20184;-73
2023/03/04 06:30:20;;;;;;;3.37;2.03;;;5.70;98.50;;;;;;5024915;28;20257;-74
2023/03/04 06:32:46;;;;;;;2.40;2.20;;;5.80;98.50;;;;;;5030328;28;20191;-75
2023/03/04 06:35:14;;;;;;;3.13;2.10;;;5.90;98.50;;;;;;5032434;28;20179;-75
2023/03/04 06:37:40;;;;;;;4.83;2.63;;;6.00;98.50;;;;;;5028729;28;20673;-75
2023/03/04 06:40:06;;;;;;;2.63;2.40;;;6.10;98.50;;;;;;5023664;28;20204;-74
2023/03/04 06:42:33;;;;;;;2.50;2.40;;;6.20;98.50;;;;;;5029956;28;20179;-74
2023/03/04 06:44:59;;;;;;;5.80;2.40;;;6.30;98.30;;;;;;5030315;28;20585;-74
2023/03/04 06:47:24;;;;;;;2.27;2.00;;;6.50;98.50;;;;;;5039568;28;20183;-74
2023/03/04 06:49:50;;;;;;;2.03;1.93;;;6.60;98.30;;;;;;5027649;28;20216;-74
2023/03/04 06:52:16;;;;;;;5.43;1.93;;;6.70;97.60;;;;;;5031923;28;20184;-75
2023/03/04 06:54:41;;;;;;;3.33;2.47;;;6.80;97.20;;;;;;5027719;28;20237;-74
2023/03/04 06:57:07;;;;;;;3.07;1.97;;;6.90;96.50;;;;;;5031046;28;20211;-75
2023/03/04 06:59:33;;;;;;;2.07;1.87;;;7.00;96.50;;;;;;5031899;28;20184;-77
2023/03/04 07:01:59;;;;;;;2.10;1.93;;;7.10;96.40;;;;;;5031242;28;20185;-76
2023/03/04 07:04:24;;;;;;;2.90;2.20;;;7.20;96.30;;;;;;5035624;28;20177;-74
2023/03/04 07:06:50;;;;;;;5.27;2.30;;;7.20;95.70;;;;;;5028998;28;20187;-74
2023/03/04 07:09:17;;;;;;;2.20;1.83;;;7.30;95.10;;;;;;5032989;28;20258;-74
2023/03/04 07:11:43;;;;;;;8.50;2.80;;;7.40;93.10;;;;;;5033225;28;20236;-74
2023/03/04 07:14:09;;;;;;;2.93;2.60;;;7.40;91.80;;;;;;5031856;28;20180;-74
2023/03/04 07:16:34;;;;;;;5.10;3.43;;;7.30;91.60;;;;;;5033606;28;20591;-75
2023/03/04 07:19:00;;;;;;;4.77;3.43;;;7.30;91.90;;;;;;5029944;28;20234;-76
2023/03/04 07:21:26;;;;;;;3.87;2.57;;;7.30;91.60;;;;;;5035145;28;21081;-75
2023/03/04 07:23:52;;;;;;;3.53;2.83;;;7.20;91.30;;;;;;5031723;28;20183;-76
2023/03/04 07:26:18;;;;;;;5.43;2.93;;;7.20;91.70;;;;;;5031489;28;20183;-75
2023/03/04 07:28:44;;;;;;;2.63;2.43;;;7.20;92.20;;;;;;5028325;28;20187;-75
2023/03/04 07:31:11;;;;;;;4.40;2.07;;;7.20;92.30;;;;;;5030076;28;20314;-75
2023/03/04 07:33:36;;;;;;;2.43;2.00;;;7.30;92.30;;;;;;5025879;28;20627;-74
2023/03/04 07:36:02;;;;;;;2.60;2.07;;;7.30;92.40;;;;;;5024826;28;20206;-74
2023/03/04 07:38:28;;;;;;;2.70;2.43;;;7.40;91.40;;;;;;5032111;28;20180;-75
2023/03/04 07:40:57;;;;;;;1.90;1.73;;;7.40;91.20;;;;;;5026304;28;20806;-75
2023/03/04 07:43:23;;;;;;;3.13;2.37;;;7.40;90.70;;;;;;5029623;28;20185;-75
2023/03/04 07:45:49;;;;;;;2.60;2.50;;;7.50;90.60;;;;;;5032924;28;20188;-75
2023/03/04 07:48:14;;;;;;;2.90;2.27;;;7.50;90.80;;;;;;5035945;28;20179;-75
2023/03/04 07:50:40;;;;;;;1.87;1.77;;;7.60;90.10;;;;;;5026828;28;20212;-75
2023/03/04 07:53:06;;;;;;;2.47;2.27;;;7.70;90.40;;;;;;5032310;28;20259;-75
2023/03/04 07:55:32;;;;;;;4.00;2.70;;;7.80;90.80;;;;;;5033650;28;20611;-75
2023/03/04 07:57:57;;;;;;;3.27;2.07;;;7.90;90.70;;;;;;5027070;28;20255;-75
2023/03/04 08:00:23;;;;;;;7.17;2.60;;;8.10;89.50;;;;;;5030745;28;20195;-75
2023/03/04 08:02:49;;;;;;;3.33;2.80;;;8.20;89.50;;;;;;5036944;28;20192;-75
2023/03/04 08:05:14;;;;;;;3.85;2.58;;;8.30;88.90;;;;;;5033567;28;20563;-76
2023/03/04 08:07:40;;;;;;;6.73;2.50;;;8.40;88.10;;;;;;5037073;28;20548;-75
2023/03/04 08:10:07;;;;;;;2.30;2.10;;;8.50;87.20;;;;;;5030537;28;20640;-74
2023/03/04 08:12:33;;;;;;;2.57;2.33;;;8.60;86.90;;;;;;5033852;28;20239;-75
2023/03/04 08:14:59;;;;;;;2.47;2.13;;;8.60;86.30;;;;;;5035025;28;20661;-74
2023/03/04 08:17:25;;;;;;;2.63;2.43;;;8.60;86.30;;;;;;5031921;28;20172;-75
2023/03/04 08:19:50;;;;;;;4.97;2.33;;;8.70;85.90;;;;;;5026839;28;20195;-75
2023/03/04 08:22:16;;;;;;;2.47;2.27;;;8.70;86.00;;;;;;5035018;28;20252;-76
2023/03/04 08:24:41;;;;;;;2.47;2.33;;;8.70;86.00;;;;;;5034348;28;20673;-75
2023/03/04 08:27:08;;;;;;;3.93;2.83;;;8.80;86.40;;;;;;5029580;28;20263;-75
2023/03/04 08:29:34;;;;;;;4.23;2.67;;;8.80;85.90;;;;;;5032233;28;20201;-75
2023/03/04 08:31:59;;;;;;;6.40;2.42;;;8.70;85.30;;;;;;5031152;28;20200;-74
2023/03/04 08:34:27;;;;;;;3.00;2.58;;;8.70;85.50;;;;;;5032994;28;20184;-74
2023/03/04 08:36:53;;;;;;;4.30;3.00;;;8.70;85.50;;;;;;5030028;28;20260;-75
2023/03/04 08:39:19;;;;;;;3.03;2.60;;;8.70;85.60;;;;;;5033893;28;20328;-76
2023/03/04 08:41:45;;;;;;;3.95;2.60;;;8.70;85.40;;;;;;5028557;28;20290;-75
2023/03/04 08:44:11;;;;;;;3.85;3.10;;;8.70;85.60;;;;;;5028829;28;20887;-75
2023/03/04 08:46:39;;;;;;;2.47;2.33;;;8.70;85.40;;;;;;5030070;28;20185;-75
2023/03/04 08:49:06;;;;;;;4.63;2.72;;;8.70;85.10;;;;;;5028094;28;20425;-75
2023/03/04 08:51:34;;;;;;;5.32;2.75;;;8.70;85.20;;;;;;5026355;28;20208;-77
2023/03/04 08:54:00;;;;;;;5.03;2.85;;;8.70;85.30;;;;;;5029273;28;20179;-77
2023/03/04 08:56:26;;;;;;;4.10;2.95;;;8.70;85.00;;;;;;5030284;28;20442;-77
2023/03/04 08:58:52;;;;;;;3.17;2.40;;;8.80;85.60;;;;;;5031448;28;20212;-78
2023/03/04 09:01:18;;;;;;;7.60;2.97;;;8.90;84.50;;;;;;5027488;28;20215;-77
2023/03/04 09:03:43;;;;;;;2.95;2.72;;;9.00;84.30;;;;;;5030987;28;20273;-75
2023/03/04 09:06:13;;;;;;;6.00;2.85;;;9.10;84.60;;;;;;5028418;28;20192;-74
2023/03/04 09:08:39;;;;;;;5.25;2.95;;;9.30;84.30;;;;;;5029133;28;20252;-74
2023/03/04 09:11:05;;;;;;;3.17;2.88;;;9.50;83.50;;;;;;5035472;28;20219;-73
2023/03/04 09:13:32;;;;;;;3.63;2.78;;;9.70;83.10;;;;;;5025323;28;20196;-76
2023/03/04 09:15:58;;;;;;;4.95;3.03;;;9.90;83.20;;;;;;5030923;28;20187;-76
2023/03/04 09:18:25;;;;;;;7.68;3.05;;;10.10;81.40;;;;;;5033539;28;20176;-76
2023/03/04 09:20:51;;;;;;;4.05;3.28;;;10.40;80.90;;;;;;5036766;28;20191;-76
2023/03/04 09:23:17;;;;;;;3.22;2.92;;;10.60;81.00;;;;;;5032540;28;20279;-76
2023/03/04 09:25:45;;;;;;;5.05;2.90;;;11.00;81.30;;;;;;5029516;28;20191;-77
2023/03/04 09:28:12;;;;;;;3.55;3.13;;;11.40;79.30;;;;;;5031803;28;20194;-75
2023/03/04 09:30:38;;;;;;;2.88;2.58;;;11.60;77.70;;;;;;5031940;28;20210;-79
2023/03/04 09:33:03;;;;;;;5.47;3.65;;;11.70;77.20;;;;;;5037516;28;20226;-77
2023/03/04 09:35:29;;;;;;;3.28;2.90;;;11.80;77.10;;;;;;5035896;28;20656;-77
2023/03/04 09:37:55;;;;;;;3.78;3.03;;;11.80;75.10;;;;;;5034298;28;20196;-78
2023/03/04 09:40:48;;;;;;;4.60;3.20;;;11.80;76.60;;;;;;5030097;28;20183;-77
2023/03/04 09:43:28;;;;;;;3.13;2.83;;;11.70;76.10;;;;;;5036231;28;20189;-78
2023/03/04 09:45:57;;;;;;;3.92;3.08;;;11.60;74.70;;;;;;5043210;28;20168;-77
2023/03/04 09:48:27;;;;;;;7.10;3.25;;;11.30;75.10;;;;;;5031927;28;20790;-74
2023/03/04 09:51:13;;;;;;;5.05;3.03;;;11.20;76.10;;;;;;5036772;28;20292;-74
2023/03/04 09:54:23;;;;;;;5.30;3.25;;;11.30;76.50;;;;;;5032429;28;20634;-75
2023/03/04 09:56:50;;;;;;;4.72;2.75;;;11.40;76.20;;;;;;5017415;28;20612;-76
2023/03/04 09:59:28;;;;;;;3.33;3.03;;;11.70;76.60;;;;;;5023537;28;20756;-75
2023/03/04 10:01:57;;;;;;;7.47;3.65;;;11.90;74.40;;;;;;5024207;28;20201;-75
2023/03/04 10:04:30;;;;;;;11.07;3.25;;;11.90;73.80;;;;;;5021799;28;20276;-75
2023/03/04 10:06:56;;;;;;;4.18;3.08;;;11.80;74.10;;;;;;5023033;28;20195;-75
2023/03/04 10:09:59;;;;;;;6.35;3.60;;;11.80;74.20;;;;;;5023472;28;20743;-76
2023/03/04 10:12:29;;;;;;;4.03;3.65;;;11.90;74.40;;;;;;4971297;28;20332;-76
2023/03/04 10:15:15;;;;;;;3.28;3.08;;;12.10;74.40;;;;;;4972078;28;20190;-76
2023/03/04 10:17:45;;;;;;;5.15;3.35;;;12.20;73.90;;;;;;4972911;28;20186;-75
2023/03/04 10:20:50;;;;;;;3.25;3.05;;;12.40;73.40;;;;;;4971821;28;20328;-76
2023/03/04 10:23:23;;;;;;;3.60;3.28;;;12.70;73.40;;;;;;4973362;28;20209;-76
2023/03/04 10:25:52;;;;;;;7.53;3.75;;;13.10;73.40;;;;;;4972743;28;20225;-75
2023/03/04 10:28:25;;;;;;;5.00;3.47;;;13.30;71.90;;;;;;4964427;28;20244;-77
2023/03/04 10:30:56;;;;;;;10.23;4.47;;;13.30;71.60;;;;;;4990557;28;20786;-76
2023/03/04 10:33:26;;;;;;;6.93;3.65;;;13.40;71.80;;;;;;4989284;28;20217;-76
2023/03/04 10:36:05;;;;;;;7.50;4.20;;;13.50;72.00;;;;;;4990233;28;20213;-75
2023/03/04 10:38:37;;;;;;;3.88;3.50;;;13.50;71.80;;;;;;4990516;28;20327;-76
2023/03/04 10:41:20;;;;;;;5.50;4.32;;;13.40;71.90;;;;;;4980118;28;20227;-76
2023/03/04 10:44:00;;;;;;;4.50;4.07;;;13.40;71.90;;;;;;4987660;28;20227;-76
2023/03/04 10:46:26;;;;;;;7.25;3.47;;;13.40;72.20;;;;;;4991624;28;20694;-76
2023/03/04 10:48:53;;;;;;;5.20;3.58;;;13.20;71.90;;;;;;5022607;28;20189;-76
2023/03/04 10:51:22;;;;;;;7.25;4.25;;;13.10;71.80;;;;;;5027321;28;21073;-76
2023/03/04 10:53:57;;;;;;;4.55;4.07;;;12.80;72.20;;;;;;5031203;28;20218;-76
2023/03/04 10:56:51;;;;;;;8.15;4.18;;;12.70;73.50;;;;;;5028702;28;20676;-76
2023/03/04 10:59:32;;;;;;;7.32;4.57;;;12.50;73.90;;;;;;5037514;28;20231;-76
2023/03/04 11:01:59;;;;;;;6.55;3.92;;;12.10;74.20;;;;;;5032827;28;20636;-76
2023/03/04 11:04:31;;;;;;;9.25;4.28;;;11.90;74.60;;;;;;5029883;28;20208;-76
2023/03/04 11:06:56;;;;;;;6.45;4.45;;;11.60;74.50;;;;;;5032297;28;20195;-76
2023/03/04 11:09:25;;;;;;;4.03;3.72;;;11.20;75.70;;;;;;5032932;28;20199;-76
2023/03/04 11:11:54;;;;;;;5.63;4.57;;;11.20;76.50;;;;;;5038235;28;20216;-76
2023/03/04 11:14:29;;;;;;;4.30;3.60;;;11.00;76.90;;;;;;5031912;28;20584;-76
2023/03/04 11:17:02;;;;;;;7.30;4.07;;;10.90;77.60;;;;;;5036509;28;20179;-76
2023/03/04 11:19:38;;;;;;;5.88;3.53;;;10.90;77.60;;;;;;5032891;28;20176;-76
2023/03/04 11:22:04;;;;;;;9.50;4.28;;;10.90;77.80;;;;;;5031498;28;20242;-76
2023/03/04 11:24:33;;;;;;;5.80;3.67;;;10.90;77.20;;;;;;5028498;28;20189;-76
2023/03/04 11:27:19;;;;;;;6.80;4.03;;;10.80;77.30;;;;;;5033444;28;20564;-76
2023/03/04 11:29:54;;;;;;;4.45;3.80;;;10.80;78.00;;;;;;5029890;28;20192;-76
2023/03/04 11:32:29;;;;;;;3.47;3.17;;;10.80;78.30;;;;;;5036341;28;20183;-76
2023/03/04 11:35:21;;;;;;;6.13;4.05;;;10.90;78.20;;;;;;5034670;28;20179;-76
2023/03/04 11:38:01;;;;;;;10.15;4.07;;;10.90;77.60;;;;;;5032545;28;20188;-76
2023/03/04 11:40:42;;;;;;;4.95;4.10;;;11.00;77.50;;;;;;5029078;28;20267;-76
2023/03/04 11:43:29;;;;;;;3.55;3.03;;;11.10;77.20;;;;;;5035406;28;20190;-76
2023/03/04 11:46:22;;;;;;;5.95;3.33;;;11.10;76.70;;;;;;5029038;28;20249;-76
2023/03/04 11:49:25;;;;;;;11.75;3.60;;;11.10;77.10;;;;;;5031339;28;20271;-75
2023/03/04 11:52:09;;;;;;;7.85;3.80;;;11.10;77.60;;;;;;5026486;28;20211;-75
2023/03/04 11:55:12;;;;;;;4.65;3.55;;;11.00;77.40;;;;;;5032182;28;20200;-75
2023/03/04 11:57:41;;;;;;;4.30;3.13;;;11.00;77.40;;;;;;5031766;28;20267;-76
2023/03/04 12:00:38;;;;;;;3.97;3.58;;;10.90;77.60;;;;;;5030501;28;20208;-76
2023/03/04 12:03:24;;;;;;;5.97;3.80;;;10.90;77.40;;;;;;5028594;28;20191;-76
2023/03/04 12:06:01;;;;;;;8.32;4.07;;;10.90;77.40;;;;;;5031872;28;20271;-77
2023/03/04 12:08:38;;;;;;;6.28;4.18;;;10.90;77.30;;;;;;5032812;28;20198;-76
2023/03/04 12:11:39;;;;;;;5.30;4.53;;;10.80;77.10;;;;;;5026653;28;20884;-76
2023/03/04 12:14:23;;;;;;;6.30;4.25;;;10.80;77.30;;;;;;5029808;28;20293;-76
2023/03/04 12:17:23;;;;;;;12.18;4.53;;;10.70;77.80;;;;;;5029551;28;20198;-75
2023/03/04 12:20:08;;;;;;;11.15;4.55;;;10.80;78.00;;;;;;5028695;28;20195;-75
2023/03/04 12:22:55;;;;;;;6.82;4.28;;;10.80;78.00;;;;;;5031553;28;20176;-75
2023/03/04 12:25:58;;;;;;;6.40;4.03;;;10.90;77.60;;;;;;5032309;28;20389;-76
2023/03/04 12:28:40;;;;;;;7.70;5.28;;;10.80;77.40;;;;;;5035020;28;20188;-76
2023/03/04 12:31:35;;;;;;;9.13;4.28;;;10.90;77.60;;;;;;5031783;28;20265;-76
2023/03/04 12:34:13;;;;;;;7.45;4.45;;;10.90;77.70;;;;;;5030067;28;20180;-76
2023/03/04 12:37:06;;;;;;;6.47;3.45;;;10.80;77.60;;;;;;5029528;28;21022;-76
2023/03/04 12:39:49;;;;;;;7.07;4.35;;;10.70;77.40;;;;;;5027947;28;20192;-76
2023/03/04 12:42:18;;;;;;;7.57;4.63;;;10.70;77.90;;;;;;5031864;28;20195;-76
2023/03/04 12:44:55;;;;;;;5.07;4.35;;;10.70;77.80;;;;;;5029839;28;20185;-76
2023/03/04 12:47:26;;;;;;;7.57;4.22;;;10.80;78.00;;;;;;5027875;28;20182;-75
2023/03/04 12:50:22;;;;;;;6.32;4.47;;;10.80;77.90;;;;;;5031594;28;20192;-76
2023/03/04 12:52:47;;;;;;;4.60;3.78;;;10.80;77.70;;;;;;5044259;28;20275;-76
2023/03/04 12:55:19;;;;;;;8.13;4.72;;;10.90;77.60;;;;;;5030576;28;20263;-76
2023/03/04 12:57:45;;;;;;;8.73;4.53;;;10.90;77.50;;;;;;5031905;28;20198;-76
2023/03/04 13:00:46;;;;;;;6.47;4.93;;;11.00;77.40;;;;;;5025390;28;20747;-76
2023/03/04 13:03:29;;;;;;;5.57;4.10;;;11.10;77.50;;;;;;5027905;28;20199;-75
2023/03/04 13:06:16;;;;;;;7.68;4.88;;;11.20;77.30;;;;;;5029439;28;20247;-75